Time;durP1;ratioP1;P1;durP2;ratioP2;P2;SDS_P1;SDS_P2;PMS_P1;PMS_P2;Temp;Humidity;BMP_temperature;BMP_pressure;BME280_temperature;BME280_humidity;BME280_pressure;Samples;Min_cycle;Max_cycle;Signal;HPM_P1;HPM_P2
2022/08/13 00:00:39;;;;;;;6.57;6.03;;;;;;;24.96;83.35;99037.34;5074305;28;20589;-69
2022/08/13 00:03:14;;;;;;;6.07;5.67;;;;;;;24.86;83.58;99026.06;5074043;28;20207;-69
2022/08/13 00:05:43;;;;;;;5.53;5.17;;;;;;;24.92;83.85;99035.97;5074354;28;20223;-69
2022/08/13 00:08:10;;;;;;;6.33;6.03;;;;;;;24.89;83.99;99031.03;5071537;28;20212;-69
2022/08/13 00:10:37;;;;;;;5.87;5.57;;;;;;;24.83;83.82;99020.28;5073588;28;20295;-69
2022/08/13 00:13:06;;;;;;;6.40;6.07;;;;;;;24.89;83.25;99031.03;5073661;28;20571;-69
2022/08/13 00:15:35;;;;;;;6.53;5.97;;;;;;;24.85;83.73;99027.03;5074213;28;20253;-69
2022/08/13 00:18:06;;;;;;;6.80;6.40;;;;;;;24.81;83.97;99023.03;5073864;28;20205;-69
2022/08/13 00:20:35;;;;;;;5.80;5.50;;;;;;;24.75;84.27;99014.94;5073038;28;20224;-69
2022/08/13 00:23:01;;;;;;;6.50;6.13;;;;;;;24.77;84.71;99023.47;5073806;28;20200;-69
2022/08/13 00:25:29;;;;;;;6.23;5.83;;;;;;;24.73;84.65;99019.47;5073534;28;20203;-69
2022/08/13 00:27:59;;;;;;;6.17;5.67;;;;;;;24.66;84.52;99021.84;5073687;28;20215;-69
2022/08/13 00:30:30;;;;;;;5.60;5.30;;;;;;;24.59;84.59;99023.38;5073608;28;20203;-69
2022/08/13 00:32:59;;;;;;;5.37;5.07;;;;;;;24.48;85.18;99005.25;5073737;28;20203;-69
2022/08/13 00:35:26;;;;;;;6.40;5.90;;;;;;;24.52;85.51;99011.84;5072441;28;20679;-69
2022/08/13 00:37:56;;;;;;;5.87;5.57;;;;;;;24.49;86.26;99017.38;5073472;28;20200;-69
2022/08/13 00:40:24;;;;;;;6.40;6.10;;;;;;;24.46;86.03;99010.59;5071197;28;20273;-69
2022/08/13 00:42:52;;;;;;;6.00;5.60;;;;;;;24.44;86.14;99009.09;5072597;28;20238;-69
2022/08/13 00:45:20;;;;;;;6.50;5.90;;;;;;;24.42;86.14;99011.06;5073115;28;20583;-69
2022/08/13 00:50:35;;;;;;;6.17;5.87;;;;;;;24.34;86.21;99009.13;5071457;28;20256;-69
2022/08/13 00:53:02;;;;;;;6.70;6.33;;;;;;;24.30;87.13;99009.56;5071250;28;20199;-69
2022/08/13 00:55:29;;;;;;;6.40;6.00;;;;;;;24.28;86.84;99008.88;5072782;28;20207;-69
2022/08/13 00:57:59;;;;;;;6.53;5.90;;;;;;;24.27;86.76;99009.84;5071936;28;20196;-69
2022/08/13 01:00:27;;;;;;;7.03;6.57;;;;;;;24.17;86.32;99001.19;5069169;28;20204;-69
2022/08/13 01:02:57;;;;;;;6.43;6.03;;;;;;;24.21;86.46;99008.63;5071334;28;20557;-69
2022/08/13 01:05:25;;;;;;;7.23;6.83;;;;;;;24.13;86.71;99012.94;5072617;28;20200;-69
2022/08/13 01:07:53;;;;;;;6.10;5.70;;;;;;;24.09;85.74;99008.91;5072888;28;20227;-69
2022/08/13 01:10:20;;;;;;;7.00;6.40;;;;;;;24.06;86.14;99007.38;5071897;28;20203;-69
2022/08/13 01:12:51;;;;;;;5.83;5.53;;;;;;;24.00;86.33;99000.94;5072422;28;20291;-69
2022/08/13 01:15:20;;;;;;;5.70;5.40;;;;;;;24.03;86.43;99008.50;5072740;28;20612;-69
2022/08/13 01:17:53;;;;;;;6.00;5.70;;;;;;;24.01;87.16;99010.41;5070819;28;20200;-69
2022/08/13 01:20:26;;;;;;;7.00;6.60;;;;;;;23.97;87.06;99006.41;5072012;28;20211;-69
2022/08/13 01:22:55;;;;;;;6.90;6.50;;;;;;;23.97;87.23;99003.78;5071622;28;20196;-69
2022/08/13 01:25:25;;;;;;;6.83;6.40;;;;;;;23.95;87.35;99000.50;5070690;28;20295;-68
2022/08/13 01:27:53;;;;;;;7.33;6.93;;;;;;;23.95;87.33;99008.34;5070168;28;20196;-68
2022/08/13 01:30:23;;;;;;;7.97;7.23;;;;;;;23.84;87.60;98989.38;5070451;28;20200;-68
2022/08/13 01:32:51;;;;;;;7.00;6.50;;;;;;;23.92;87.47;98992.94;5068934;28;20189;-69
2022/08/13 01:35:20;;;;;;;7.13;6.43;;;;;;;23.90;87.68;98994.03;5070448;28;20204;-68
2022/08/13 01:37:54;;;;;;;8.27;7.47;;;;;;;23.87;87.59;98997.78;5070961;28;20200;-69
2022/08/13 01:40:22;;;;;;;7.43;6.83;;;;;;;23.77;87.64;98978.63;5072218;28;20285;-68
2022/08/13 01:42:50;;;;;;;7.23;6.67;;;;;;;23.82;87.85;98991.28;5072118;28;20200;-69
2022/08/13 01:45:18;;;;;;;7.60;6.80;;;;;;;23.79;87.88;98989.78;5072548;28;20283;-69
2022/08/13 01:50:31;;;;;;;9.03;8.17;;;;;;;23.73;88.06;98987.72;5070449;28;20215;-69
2022/08/13 01:53:01;;;;;;;8.37;7.53;;;;;;;23.68;88.44;98984.72;5071750;28;20227;-69
2022/08/13 01:55:37;;;;;;;8.93;8.20;;;;;;;23.57;88.73;98990.06;5072484;28;20691;-69
2022/08/13 01:58:06;;;;;;;9.80;8.90;;;;;;;23.57;89.13;98991.84;5071908;28;20199;-69
2022/08/13 02:00:33;;;;;;;9.83;9.03;;;;;;;23.55;89.48;98996.41;5071806;28;20250;-69
2022/08/13 02:03:01;;;;;;;12.10;9.60;;;;;;;23.52;89.16;98995.72;5071579;28;20660;-69
2022/08/13 02:05:29;;;;;;;10.83;9.73;;;;;;;23.51;89.34;98998.47;5070888;28;20686;-69
2022/08/13 02:07:57;;;;;;;12.83;10.43;;;;;;;23.44;89.52;98992.13;5071628;28;20735;-69
2022/08/13 02:10:24;;;;;;;11.67;9.97;;;;;;;23.36;89.93;98999.81;5071667;28;20261;-69
2022/08/13 02:12:53;;;;;;;11.43;10.27;;;;;;;23.32;90.59;98993.19;5071777;28;20207;-69
2022/08/13 02:15:20;;;;;;;15.57;10.93;;;;;;;23.30;90.66;98989.88;5071586;28;20637;-69
2022/08/13 02:17:47;;;;;;;17.57;10.73;;;;;;;23.26;90.68;98989.34;5070259;28;20203;-70
2022/08/13 02:20:17;;;;;;;14.20;11.37;;;;;;;23.20;90.72;98983.84;5070763;28;20565;-69
2022/08/13 02:22:46;;;;;;;13.70;10.40;;;;;;;23.19;91.17;98988.22;5071439;28;20208;-69
2022/08/13 02:25:15;;;;;;;16.47;10.57;;;;;;;23.13;90.92;98972.25;5071194;28;20226;-69
2022/08/13 02:27:42;;;;;;;13.17;10.70;;;;;;;23.19;91.23;98997.88;5071279;28;20196;-69
2022/08/13 02:30:14;;;;;;;19.10;12.43;;;;;;;23.08;91.54;98979.66;5071367;28;20217;-69
2022/08/13 02:32:41;;;;;;;19.70;13.23;;;;;;;23.13;91.31;98985.34;5071168;28;20196;-69
2022/08/13 02:35:09;;;;;;;18.07;13.03;;;;;;;23.10;91.59;98993.44;5070069;28;20647;-69
2022/08/13 02:37:37;;;;;;;14.70;12.57;;;;;;;23.10;91.79;98999.50;5070390;28;20242;-69
2022/08/13 02:41:38;;;;;;;17.47;12.50;;;;;;;23.09;91.86;98999.63;5071382;28;20192;-69
2022/08/13 02:42:55;;;;;;;17.87;12.10;;;;;;;23.07;91.39;98998.94;5070157;28;20243;-69
2022/08/13 02:45:25;;;;;;;23.40;13.13;;;;;;;22.98;92.63;99006.63;5070970;28;20200;-68
2022/08/13 02:47:52;;;;;;;19.37;12.13;;;;;;;22.88;92.91;98997.91;5070058;28;20615;-69
2022/08/13 02:50:21;;;;;;;16.80;12.10;;;;;;;22.80;93.11;98997.78;5070392;28;20739;-68
2022/08/13 02:52:51;;;;;;;14.43;11.27;;;;;;;22.81;92.84;98999.41;5070463;28;20638;-68
2022/08/13 02:55:18;;;;;;;16.57;10.37;;;;;;;22.69;92.62;99004.88;5070311;28;20196;-69
2022/08/13 02:57:45;;;;;;;11.57;9.77;;;;;;;22.62;92.83;99017.59;5070859;28;20207;-68
2022/08/13 03:00:13;;;;;;;13.60;10.50;;;;;;;22.61;92.80;99018.59;5071127;28;20576;-68
2022/08/13 03:02:44;;;;;;;10.67;8.40;;;;;;;22.37;92.75;99015.44;5070651;28;20683;-69
2022/08/13 03:05:13;;;;;;;16.23;8.70;;;;;;;22.39;92.77;99014.34;5070811;28;20675;-68
2022/08/13 03:07:43;;;;;;;10.27;9.03;;;;;;;22.39;93.14;99014.34;5068405;28;20231;-69
2022/08/13 03:10:12;;;;;;;10.40;8.13;;;;;;;22.37;93.91;99020.66;5067899;28;20211;-69
2022/08/13 03:12:42;;;;;;;8.77;8.07;;;;;;;22.40;93.34;99015.16;5069270;28;20250;-69
2022/08/13 03:15:11;;;;;;;9.13;8.30;;;;;;;22.41;93.43;99016.81;5070424;28;20210;-69
2022/08/13 03:17:38;;;;;;;9.00;8.30;;;;;;;22.41;93.64;99016.81;5070350;28;20188;-69
2022/08/13 03:20:09;;;;;;;8.97;8.20;;;;;;;22.41;93.79;99022.06;5070398;28;20206;-69
2022/08/13 03:22:48;;;;;;;9.47;7.37;;;;;;;22.42;93.34;99018.50;5070238;28;20302;-69
2022/08/13 03:25:16;;;;;;;8.83;8.23;;;;;;;22.44;93.34;99021.78;5069750;28;20286;-69
2022/08/13 03:27:43;;;;;;;7.83;7.23;;;;;;;22.36;92.88;99003.31;5068752;28;20204;-69
2022/08/13 03:30:11;;;;;;;9.97;8.00;;;;;;;22.18;92.30;98984.81;5068736;28;20222;-69
2022/08/13 03:32:40;;;;;;;8.50;7.80;;;;;;;22.26;92.35;99002.47;5068976;28;20192;-68
2022/08/13 03:35:10;;;;;;;8.67;8.07;;;;;;;22.34;92.61;99018.28;5066563;28;20214;-68
2022/08/13 03:37:37;;;;;;;9.03;8.00;;;;;;;22.35;92.58;99012.13;5068637;28;20421;-69
2022/08/13 03:40:06;;;;;;;9.23;8.30;;;;;;;22.33;92.64;99014.84;5068127;28;20196;-69
2022/08/13 03:42:33;;;;;;;9.17;8.20;;;;;;;22.28;93.35;99000.53;5068388;28;20215;-69
2022/08/13 03:45:01;;;;;;;9.13;8.17;;;;;;;22.33;93.61;99009.63;5067760;28;20637;-69
2022/08/13 03:47:27;;;;;;;8.30;7.70;;;;;;;22.37;93.69;99010.19;5070043;28;20227;-69
2022/08/13 03:49:54;;;;;;;10.23;9.37;;;;;;;22.41;93.99;99016.81;5069821;28;20192;-69
2022/08/13 03:52:23;;;;;;;9.77;8.03;;;;;;;22.46;93.98;99020.69;5070211;28;20192;-69
2022/08/13 03:54:50;;;;;;;8.30;7.23;;;;;;;22.48;93.26;99018.81;5070091;28;20667;-69
2022/08/13 03:57:21;;;;;;;8.37;7.67;;;;;;;22.55;93.06;99023.50;5069119;28;20249;-68
2022/08/13 03:59:48;;;;;;;7.87;6.77;;;;;;;22.60;92.86;99032.59;5064745;28;20672;-69
2022/08/13 04:02:16;;;;;;;7.40;6.90;;;;;;;22.61;93.28;99023.81;5060994;28;20726;-69
2022/08/13 04:04:46;;;;;;;10.73;7.47;;;;;;;22.54;93.29;99012.22;5069984;28;20254;-69
2022/08/13 04:07:14;;;;;;;8.87;8.20;;;;;;;22.68;93.26;99026.75;5068623;28;20197;-69
2022/08/13 04:09:43;;;;;;;10.23;7.90;;;;;;;22.70;93.17;99023.03;5070286;28;20196;-69
2022/08/13 04:12:11;;;;;;;8.20;7.50;;;;;;;22.74;93.31;99034.91;5069895;28;20199;-69
2022/08/13 04:14:39;;;;;;;7.97;7.27;;;;;;;22.78;93.39;99031.03;5070162;28;20349;-68
2022/08/13 04:17:08;;;;;;;8.23;7.43;;;;;;;22.74;92.89;99027.06;5069695;28;20196;-69
2022/08/13 04:19:36;;;;;;;7.60;7.00;;;;;;;22.82;91.72;99042.88;5069523;28;20196;-69
2022/08/13 04:22:04;;;;;;;8.47;7.77;;;;;;;22.70;90.15;99043.13;5069536;28;20212;-68
2022/08/13 04:24:32;;;;;;;9.87;8.37;;;;;;;22.73;90.40;99033.22;5072968;28;20253;-68
2022/08/13 04:27:01;;;;;;;10.23;8.77;;;;;;;22.77;89.36;99032.00;5073632;28;20700;-69
2022/08/13 04:29:28;;;;;;;10.60;8.70;;;;;;;22.80;90.21;99039.59;5073487;28;20196;-69
2022/08/13 04:31:54;;;;;;;159.40;66.17;;;;;;;22.85;90.72;99039.19;5073769;28;20227;-69
2022/08/13 04:34:23;;;;;;;314.83;142.23;;;;;;;22.81;90.38;99037.81;5072952;28;20219;-69
2022/08/13 04:36:50;;;;;;;105.57;51.83;;;;;;;22.78;89.08;99044.09;5072684;28;20196;-69
2022/08/13 04:39:17;;;;;;;32.37;19.83;;;;;;;22.78;88.49;99041.50;5072200;28;20211;-69
2022/08/13 04:41:44;;;;;;;15.10;12.73;;;;;;;22.75;88.52;99036.53;5072216;28;20216;-69
2022/08/13 04:44:12;;;;;;;10.70;9.47;;;;;;;22.73;88.50;99033.22;5073529;28;20624;-68
2022/08/13 04:46:39;;;;;;;9.90;9.20;;;;;;;22.78;89.07;99041.50;5071597;28;20586;-68
2022/08/13 04:49:06;;;;;;;9.00;8.20;;;;;;;22.68;89.58;99022.31;5073028;28;20218;-69
2022/08/13 04:51:34;;;;;;;9.00;8.40;;;;;;;22.73;89.63;99038.47;5072947;28;20195;-69
2022/08/13 04:54:02;;;;;;;8.70;8.00;;;;;;;22.73;90.19;99033.22;5073132;28;20202;-68
2022/08/13 04:56:29;;;;;;;8.97;8.23;;;;;;;22.77;90.62;99034.63;5072532;28;20218;-69
2022/08/13 04:58:56;;;;;;;8.80;8.10;;;;;;;22.75;91.20;99025.25;5073101;28;20253;-69
2022/08/13 05:01:24;;;;;;;8.40;7.20;;;;;;;22.78;90.85;99019.78;5071340;28;20208;-69
2022/08/13 05:03:51;;;;;;;7.67;7.17;;;;;;;22.79;89.78;99027.47;5072696;28;20196;-69
2022/08/13 05:06:19;;;;;;;7.03;6.63;;;;;;;22.81;89.65;99027.34;5072127;28;20204;-68
2022/08/13 05:08:47;;;;;;;7.70;7.07;;;;;;;22.87;90.38;99030.28;5068234;28;20788;-69
2022/08/13 05:11:14;;;;;;;6.70;6.30;;;;;;;22.96;89.41;99028.63;5067587;28;20196;-69
2022/08/13 05:13:43;;;;;;;6.87;6.37;;;;;;;23.05;89.01;99027.81;5072732;28;20219;-67
2022/08/13 05:16:12;;;;;;;6.40;6.00;;;;;;;23.13;88.67;99027.16;5072562;28;20703;-67
2022/08/13 05:18:45;;;;;;;7.13;6.73;;;;;;;23.23;86.59;99028.81;5072450;28;20684;-67
2022/08/13 05:21:13;;;;;;;7.30;6.77;;;;;;;23.32;86.63;99025.41;5072474;28;20196;-67
2022/08/13 05:23:42;;;;;;;6.73;6.33;;;;;;;23.37;86.95;99017.97;5071677;28;20220;-67
2022/08/13 05:26:10;;;;;;;7.20;6.67;;;;;;;23.57;86.68;99024.09;5070606;28;20204;-67
2022/08/13 05:28:37;;;;;;;6.70;6.30;;;;;;;23.54;85.71;99003.44;5072101;28;20220;-67
2022/08/13 05:31:05;;;;;;;7.80;6.83;;;;;;;23.72;84.28;99007.00;5071781;28;20565;-67
2022/08/13 05:33:34;;;;;;;6.40;6.00;;;;;;;23.85;84.65;99012.78;5071748;28;20752;-67
2022/08/13 05:36:04;;;;;;;6.33;5.93;;;;;;;24.00;84.52;99016.63;5071053;28;20218;-66
2022/08/13 05:38:33;;;;;;;9.37;6.60;;;;;;;24.11;81.74;99009.56;5069654;28;20200;-66
2022/08/13 05:41:01;;;;;;;7.67;5.53;;;;;;;24.22;80.73;99009.44;5069594;28;20238;-67
2022/08/13 05:43:30;;;;;;;6.37;6.07;;;;;;;24.37;80.60;99010.63;5071199;28;20219;-67
2022/08/13 05:46:00;;;;;;;5.93;5.63;;;;;;;24.58;79.90;99010.44;5071392;28;20200;-66
2022/08/13 05:48:27;;;;;;;6.50;6.10;;;;;;;24.75;78.00;99013.09;5065854;28;20690;-66
2022/08/13 05:50:55;;;;;;;6.43;5.93;;;;;;;25.04;78.69;99003.31;5070495;28;20210;-67
2022/08/13 05:53:23;;;;;;;6.67;6.27;;;;;;;25.31;75.93;99004.25;5070350;28;20205;-67
2022/08/13 05:55:51;;;;;;;6.43;5.83;;;;;;;25.53;74.76;99007.31;5068280;28;20207;-67
2022/08/13 05:58:17;;;;;;;6.13;5.73;;;;;;;25.75;74.70;99000.75;5067355;28;20213;-67
2022/08/13 06:03:29;;;;;;;7.23;6.70;;;;;;;26.32;71.30;98993.31;5064997;28;20234;-67
2022/08/13 06:05:57;;;;;;;6.30;5.80;;;;;;;26.70;70.82;99010.44;5064500;28;20747;-67
2022/08/13 06:08:29;;;;;;;5.93;5.63;;;;;;;26.97;69.15;99013.72;5068772;28;20230;-67
2022/08/13 06:10:57;;;;;;;6.00;5.60;;;;;;;27.24;69.14;99003.91;5068242;28;20208;-72
2022/08/13 06:13:25;;;;;;;6.83;6.00;;;;;;;27.46;64.54;99013.88;5065442;28;20200;-71
2022/08/13 06:15:58;;;;;;;6.40;5.93;;;;;;;27.50;63.41;99009.91;5069667;28;20211;-68
2022/08/13 06:18:27;;;;;;;7.53;6.93;;;;;;;27.68;63.73;99001.84;5068931;28;20672;-66
2022/08/13 06:20:55;;;;;;;8.03;7.47;;;;;;;27.76;61.74;99005.31;5070733;28;20200;-65
2022/08/13 06:23:25;;;;;;;8.70;8.00;;;;;;;27.85;61.16;99003.50;5069766;28;20266;-67
2022/08/13 06:25:52;;;;;;;19.33;13.37;;;;;;;27.97;62.08;99008.28;5068519;28;20204;-67
2022/08/13 06:28:20;;;;;;;8.60;8.00;;;;;;;28.15;62.93;98995.75;5069609;28;20231;-67
2022/08/13 06:30:49;;;;;;;7.47;6.90;;;;;;;28.29;62.54;98996.06;5068683;28;20292;-67
2022/08/13 06:33:20;;;;;;;24.40;16.23;;;;;;;28.34;61.09;98999.00;5067077;28;20338;-67
2022/08/13 06:35:49;;;;;;;10.87;9.87;;;;;;;28.40;60.56;98998.34;5070327;28;20195;-67
2022/08/13 06:38:18;;;;;;;8.27;7.67;;;;;;;28.49;62.46;99003.44;5066862;28;20222;-65
2022/08/13 06:40:48;;;;;;;8.37;7.57;;;;;;;28.69;63.26;98998.63;5067674;28;20253;-66
2022/08/13 06:43:19;;;;;;;7.10;6.40;;;;;;;28.78;63.82;99000.22;5068344;28;20703;-67
2022/08/13 06:45:46;;;;;;;7.87;6.93;;;;;;;28.96;64.51;98994.69;5070366;28;20204;-67
2022/08/13 06:48:14;;;;;;;7.10;6.70;;;;;;;29.21;60.44;98998.03;5068341;28;20217;-67
2022/08/13 06:50:41;;;;;;;7.27;6.77;;;;;;;29.37;59.04;98990.84;5068673;28;20668;-67
2022/08/13 06:53:10;;;;;;;6.25;5.82;;;;;;;29.42;57.14;98992.97;5067117;28;20208;-66
2022/08/13 06:55:38;;;;;;;6.05;5.75;;;;;;;29.34;58.28;98993.03;5066944;28;20204;-67
2022/08/13 06:58:10;;;;;;;7.00;6.50;;;;;;;29.41;59.01;98991.31;5067624;28;20200;-66
2022/08/13 07:00:38;;;;;;;7.75;6.32;;;;;;;29.44;60.88;98993.59;5067159;28;20567;-67
2022/08/13 07:03:06;;;;;;;6.93;6.53;;;;;;;29.39;60.37;98988.03;5058777;28;20220;-66
2022/08/13 07:05:35;;;;;;;6.32;5.82;;;;;;;29.39;58.01;98991.50;5067558;28;20203;-67
2022/08/13 07:08:04;;;;;;;5.23;4.97;;;;;;;29.54;58.47;98989.72;5064332;28;20242;-67
2022/08/13 07:10:32;;;;;;;5.87;5.57;;;;;;;29.70;56.70;98988.78;5068707;28;20208;-66
2022/08/13 07:13:00;;;;;;;6.45;5.97;;;;;;;29.93;56.44;98988.78;5069129;28;20200;-73
2022/08/13 07:15:28;;;;;;;6.55;6.15;;;;;;;30.04;58.00;98988.34;5067288;28;20208;-67
2022/08/13 07:17:56;;;;;;;6.30;5.77;;;;;;;30.00;56.45;98985.25;5068425;28;20210;-67
2022/08/13 07:20:23;;;;;;;6.28;5.88;;;;;;;30.16;54.77;98989.53;5068453;28;20199;-66
2022/08/13 07:22:50;;;;;;;5.95;5.65;;;;;;;30.24;53.64;98996.59;5067874;28;20227;-67
2022/08/13 07:25:18;;;;;;;6.38;5.95;;;;;;;30.37;54.27;98991.50;5067294;28;20208;-66
2022/08/13 07:27:45;;;;;;;7.15;6.75;;;;;;;30.54;53.07;98992.97;5068495;28;20204;-65
2022/08/13 07:30:14;;;;;;;7.07;6.53;;;;;;;30.57;52.09;98989.94;5067120;28;20580;-67
2022/08/13 07:32:43;;;;;;;6.95;6.45;;;;;;;30.67;53.13;98993.97;5067776;28;20196;-66
2022/08/13 07:35:11;;;;;;;6.20;5.78;;;;;;;30.79;53.53;98981.09;5067839;28;20631;-67
2022/08/13 07:37:39;;;;;;;7.25;6.70;;;;;;;30.94;51.87;98979.22;5067595;28;20749;-67
2022/08/13 07:40:08;;;;;;;6.68;6.13;;;;;;;30.97;52.28;98986.84;5068081;28;20200;-66
2022/08/13 07:42:38;;;;;;;6.57;6.18;;;;;;;30.78;52.13;98984.75;5066756;28;20216;-67
2022/08/13 07:45:06;;;;;;;6.30;6.00;;;;;;;30.96;53.08;98982.53;5068865;28;20196;-67
2022/08/13 07:47:34;;;;;;;7.25;6.63;;;;;;;31.18;53.79;98983.41;5067377;28;20273;-66
2022/08/13 07:50:05;;;;;;;6.63;6.15;;;;;;;31.34;51.91;98979.69;5065093;28;20587;-67
2022/08/13 07:52:33;;;;;;;7.32;6.63;;;;;;;31.34;53.04;98977.03;5066536;28;20299;-67
2022/08/13 07:55:01;;;;;;;6.43;6.07;;;;;;;31.59;51.13;98973.03;5067659;28;20722;-67
2022/08/13 07:57:29;;;;;;;6.97;6.47;;;;;;;31.76;54.72;98969.09;5068699;28;20192;-67
2022/08/13 07:59:57;;;;;;;6.80;6.38;;;;;;;31.79;49.88;98962.59;5071211;28;20196;-66
2022/08/13 08:02:26;;;;;;;7.15;6.65;;;;;;;31.95;49.73;98973.75;5070516;28;20656;-67
2022/08/13 08:04:57;;;;;;;8.18;7.68;;;;;;;32.17;49.75;98967.41;5071760;28;20445;-66
2022/08/13 08:07:26;;;;;;;7.20;6.78;;;;;;;31.90;49.20;98970.84;5070244;28;21235;-65
2022/08/13 08:09:54;;;;;;;7.03;6.53;;;;;;;31.97;48.07;98960.28;5073596;28;20200;-64
2022/08/13 08:12:37;;;;;;;9.23;6.63;;;;;;;31.65;47.76;98956.38;5072264;28;20215;-63
2022/08/13 08:15:07;;;;;;;8.43;7.63;;;;;;;31.45;49.00;98955.34;5074057;28;20196;-64
2022/08/13 08:17:34;;;;;;;7.25;6.78;;;;;;;31.62;52.20;98952.28;5074105;28;20283;-65
2022/08/13 08:20:02;;;;;;;7.80;7.30;;;;;;;31.77;51.67;98948.69;5073605;28;20208;-64
2022/08/13 08:22:31;;;;;;;8.13;7.45;;;;;;;32.00;49.37;98947.44;5073440;28;20200;-65
2022/08/13 08:25:00;;;;;;;7.72;7.13;;;;;;;32.17;49.84;98940.88;5074019;28;20200;-65
2022/08/13 08:27:27;;;;;;;7.20;6.80;;;;;;;32.29;48.58;98942.97;5073196;28;20200;-65
2022/08/13 08:29:54;;;;;;;6.53;6.22;;;;;;;32.44;48.60;98941.00;5072069;28;20207;-65
2022/08/13 08:32:21;;;;;;;7.10;6.63;;;;;;;32.60;47.34;98941.50;5073099;28;20663;-64
2022/08/13 08:34:51;;;;;;;7.25;6.75;;;;;;;32.82;48.41;98939.56;5073796;28;20196;-64
2022/08/13 08:43:00;;;;;;;7.30;6.90;;;;;;;32.79;45.28;98921.38;5071486;28;20231;-65
2022/08/13 08:45:28;;;;;;;8.80;8.05;;;;;;;32.61;48.41;98915.78;5074012;28;20675;-65
2022/08/13 08:47:55;;;;;;;8.43;7.93;;;;;;;32.40;47.50;98907.91;5073549;28;20200;-65
2022/08/13 08:50:24;;;;;;;9.82;7.95;;;;;;;32.35;47.55;98899.72;5073891;28;20204;-65
2022/08/13 08:55:38;;;;;;;8.18;7.68;;;;;;;32.90;47.44;98904.84;5073459;28;20199;-65
2022/08/13 08:58:07;;;;;;;8.65;8.07;;;;;;;32.94;46.01;98895.47;5073218;28;20207;-65
2022/08/13 09:00:36;;;;;;;8.35;7.80;;;;;;;33.13;48.13;98888.56;5073607;28;20201;-65
2022/08/13 09:03:04;;;;;;;8.88;8.02;;;;;;;32.78;47.40;98893.19;5073335;28;20262;-65
2022/08/13 09:05:32;;;;;;;9.45;7.75;;;;;;;32.83;46.87;98887.28;5073470;28;20291;-65
2022/08/13 09:08:01;;;;;;;8.50;7.90;;;;;;;32.98;44.53;98890.56;5072813;28;20228;-65
2022/08/13 09:10:32;;;;;;;8.55;7.85;;;;;;;32.84;46.46;98889.72;5071979;28;20211;-65
2022/08/13 09:13:02;;;;;;;8.18;7.57;;;;;;;32.92;45.11;98886.91;5073179;28;20211;-64
2022/08/13 09:15:30;;;;;;;8.70;8.02;;;;;;;33.00;44.64;98881.38;5073219;28;20211;-65
2022/08/13 09:17:57;;;;;;;8.35;7.35;;;;;;;33.08;44.92;98864.44;5072805;28;20253;-65
2022/08/13 09:20:28;;;;;;;8.55;8.05;;;;;;;33.33;47.79;98873.47;5071794;28;20211;-65
2022/08/13 09:23:03;;;;;;;8.43;7.63;;;;;;;33.50;45.52;98873.88;5072504;28;20200;-66
2022/08/13 09:25:31;;;;;;;8.80;8.20;;;;;;;33.67;48.88;98859.16;5072456;28;20203;-66
2022/08/13 09:28:00;;;;;;;8.20;7.60;;;;;;;33.71;43.87;98866.53;5070301;28;20668;-63
2022/08/13 09:30:27;;;;;;;7.57;7.10;;;;;;;33.54;44.00;98853.84;5070869;28;20203;-65
2022/08/13 09:32:57;;;;;;;7.93;7.50;;;;;;;33.54;43.37;98857.31;5071157;28;20207;-64
2022/08/13 09:35:26;;;;;;;8.27;7.63;;;;;;;33.63;45.68;98855.28;5070575;28;20196;-64
2022/08/13 09:37:56;;;;;;;8.30;7.55;;;;;;;33.36;42.76;98853.63;5068754;28;20200;-63
2022/08/13 09:40:27;;;;;;;12.15;8.20;;;;;;;33.21;41.48;98860.00;5072946;28;20773;-64
2022/08/13 09:42:58;;;;;;;8.50;8.00;;;;;;;33.34;43.32;98848.53;5072083;28;20224;-64
2022/08/13 09:45:28;;;;;;;8.45;7.88;;;;;;;33.55;45.37;98842.19;5072682;28;20687;-65
2022/08/13 09:47:55;;;;;;;8.57;7.93;;;;;;;33.59;42.91;98840.75;5072559;28;20199;-65
2022/08/13 09:50:24;;;;;;;8.02;7.50;;;;;;;33.50;44.59;98836.66;5072630;28;20200;-64
2022/08/13 09:52:52;;;;;;;7.90;7.50;;;;;;;33.49;40.27;98837.69;5071529;28;20211;-64
2022/08/13 09:55:22;;;;;;;7.85;7.20;;;;;;;33.17;39.99;98821.56;5072301;28;20200;-63
2022/08/13 09:57:51;;;;;;;8.02;7.53;;;;;;;33.20;41.85;98830.97;5072782;28;20561;-63
2022/08/13 10:00:21;;;;;;;8.30;7.57;;;;;;;33.33;39.93;98838.09;5072450;28;20200;-63
2022/08/13 10:02:54;;;;;;;7.50;6.90;;;;;;;33.34;42.54;98826.47;5072566;28;20208;-63
2022/08/13 10:05:21;;;;;;;7.40;7.00;;;;;;;33.47;41.07;98834.44;5071902;28;20215;-64
2022/08/13 10:07:48;;;;;;;8.57;8.00;;;;;;;33.54;41.45;98833.38;5072160;28;20215;-63
2022/08/13 10:10:15;;;;;;;8.27;7.85;;;;;;;33.37;41.06;98831.38;5072293;28;20196;-63
2022/08/13 10:12:43;;;;;;;8.05;7.45;;;;;;;33.38;40.49;98811.75;5072167;28;20199;-64
2022/08/13 10:15:12;;;;;;;8.20;7.50;;;;;;;33.60;39.52;98837.94;5071891;28;20196;-64
2022/08/13 10:17:48;;;;;;;7.05;6.50;;;;;;;33.54;37.55;98827.28;5072482;28;20279;-64
2022/08/13 10:20:18;;;;;;;7.15;6.65;;;;;;;33.46;38.96;98820.31;5071875;28;20204;-63
2022/08/13 10:22:45;;;;;;;7.43;6.82;;;;;;;33.57;39.54;98821.53;5071770;28;20557;-64
2022/08/13 10:25:14;;;;;;;7.10;6.70;;;;;;;33.43;38.90;98817.25;5070422;28;20227;-63
2022/08/13 10:27:41;;;;;;;7.63;6.80;;;;;;;33.40;38.90;98812.34;5071760;28;20576;-64
2022/08/13 10:30:09;;;;;;;7.00;6.07;;;;;;;33.52;40.10;98808.03;5072271;28;20208;-64
2022/08/13 10:32:35;;;;;;;8.55;7.75;;;;;;;33.52;40.22;98808.03;5071704;28;20197;-64
2022/08/13 10:35:03;;;;;;;7.60;7.20;;;;;;;33.63;38.18;98807.44;5071629;28;20200;-63
2022/08/13 10:37:33;;;;;;;7.43;6.78;;;;;;;33.50;37.75;98805.59;5071761;28;20223;-63
2022/08/13 10:40:00;;;;;;;6.90;6.38;;;;;;;33.66;40.60;98801.72;5069540;28;20228;-63
2022/08/13 10:42:28;;;;;;;7.25;6.75;;;;;;;33.67;37.67;98812.13;5071723;28;20200;-63
2022/08/13 10:44:55;;;;;;;7.38;6.45;;;;;;;33.54;37.16;98790.06;5071381;28;20220;-63
2022/08/13 10:47:24;;;;;;;7.25;6.80;;;;;;;33.60;38.28;98799.84;5071508;28;20580;-63
2022/08/13 10:49:51;;;;;;;7.55;6.95;;;;;;;33.51;39.64;98799.25;5071780;28;20660;-63
2022/08/13 10:52:18;;;;;;;6.55;6.18;;;;;;;33.43;37.09;98793.34;5071597;28;20204;-63
2022/08/13 10:54:48;;;;;;;6.57;6.25;;;;;;;33.36;38.29;98781.88;5071417;28;20215;-63
2022/08/13 10:57:15;;;;;;;7.40;6.85;;;;;;;33.40;39.12;98791.09;5071420;28;20749;-64
2022/08/13 10:59:43;;;;;;;6.82;6.22;;;;;;;33.44;37.73;98790.47;5071173;28;20215;-65
2022/08/13 11:02:10;;;;;;;5.95;5.65;;;;;;;33.45;37.50;98775.31;5071598;28;20741;-63
2022/08/13 11:04:38;;;;;;;7.40;6.28;;;;;;;33.58;38.05;98785.94;5070046;28;20337;-64
2022/08/13 11:07:10;;;;;;;6.13;5.82;;;;;;;33.30;37.00;98785.38;5071112;28;20200;-64
2022/08/13 11:09:37;;;;;;;6.20;5.90;;;;;;;33.41;38.01;98782.91;5071391;28;20226;-64
2022/08/13 11:12:07;;;;;;;6.75;6.15;;;;;;;33.60;39.11;98790.06;5071500;28;20642;-64
2022/08/13 11:14:34;;;;;;;6.22;5.90;;;;;;;33.76;37.70;98778.16;5068801;28;20278;-63
2022/08/13 11:17:04;;;;;;;5.85;5.43;;;;;;;33.95;36.59;98781.78;5071046;28;20219;-64
2022/08/13 11:19:34;;;;;;;5.85;5.45;;;;;;;33.98;36.88;98782.16;5071013;28;20200;-64
2022/08/13 11:22:01;;;;;;;6.68;6.28;;;;;;;33.92;38.28;98767.06;5070849;28;20208;-63
2022/08/13 11:24:28;;;;;;;6.82;6.43;;;;;;;34.22;38.46;98778.81;5067605;28;20475;-72
2022/08/13 11:26:55;;;;;;;5.90;5.38;;;;;;;34.43;33.96;98785.66;5066929;28;20207;-73
2022/08/13 11:29:23;;;;;;;5.68;5.38;;;;;;;34.44;35.72;98775.84;5067160;28;20205;-72
2022/08/13 11:31:50;;;;;;;5.32;5.03;;;;;;;34.55;34.69;98780.47;5067035;28;20192;-73
2022/08/13 11:34:16;;;;;;;6.35;5.50;;;;;;;34.55;34.78;98772.47;5068521;28;20192;-72
2022/08/13 11:36:43;;;;;;;5.45;4.95;;;;;;;34.51;33.59;98771.28;5065877;28;20208;-73
2022/08/13 11:39:11;;;;;;;5.03;4.72;;;;;;;34.27;33.28;98770.19;5067964;28;20196;-74
2022/08/13 11:41:38;;;;;;;5.00;4.70;;;;;;;34.14;33.25;98765.75;5061977;28;20291;-71
2022/08/13 11:44:05;;;;;;;5.07;4.57;;;;;;;34.40;32.98;98756.00;5059120;28;20604;-74
2022/08/13 11:46:33;;;;;;;5.95;5.65;;;;;;;34.48;33.81;98756.53;5067135;28;20208;-75
2022/08/13 11:49:00;;;;;;;6.45;6.05;;;;;;;34.00;33.46;98726.09;5068368;28;20811;-73
2022/08/13 11:51:27;;;;;;;6.15;5.63;;;;;;;34.18;33.46;98756.34;5067887;28;20607;-74
2022/08/13 11:53:54;;;;;;;5.43;5.13;;;;;;;33.90;33.18;98747.00;5061480;28;20200;-74